Timber Mountain, Nevada Weather observations

Data are for 10 minute period ending at time listed.
 Day   Time   Solar   Ave.   Ave.  Ave.  Vector  Max.   Baro.   Total    
  of    of     Rad.   Air    Rel.  Wind   Wind   Wind  Press.  Precip.   
Year   Day            Temp.  Hum.  Speed  Dir.   Gust                    
2016   (PST)  Kw/m2    F      %     mph   deg.    mph    mb.     in.     
-------------------------------------------------------------------------
 146    6:00   0.14   44.1    58    2.0    97     3.7   809.7    0.00 
 146    7:00   0.32   54.0    37    1.5   228     5.4   810.0    0.00 
 146    8:00   0.54   54.9    37    3.9    49    11.8   810.2    0.00 
 146    9:00   0.79   57.4    31    6.4   101    17.8   810.4    0.00 
 146   10:00   0.78   57.8    36    5.1   246    17.3   810.5    0.00 
 146   11:00   0.46   56.8    38    7.4   265    14.0   810.4    0.00 
 146   12:00   0.36   55.2    46    5.2   232    14.5   810.3    0.01 
 146   13:00   0.85   57.9    40    6.4   254    17.8   809.9    0.00 
 146   14:00   0.38   57.0    34    8.9   280    20.8   809.9    0.00 
 146   15:00   0.34   53.6    42   12.5   322    21.3   809.9    0.01 
 146   16:00   0.50   56.3    37    8.2   312    19.1   810.1    0.00 
 146   17:00   0.27   52.4    47   11.5   293    21.5   810.5    0.00 
 146   18:00   0.04   48.2    60    7.3   305    15.9   810.7    0.00 
 146   19:00   0.01   47.8    62    8.0    10    20.0   810.8    0.00 
 146   20:00   0.00   47.6    56    8.8   356    14.9   810.7    0.00 
 146   21:00   0.00   47.8    52    4.6     6    12.0   810.9    0.00 
 146   22:00   0.00   45.8    58    4.4   359     9.9   811.1    0.00 
 146   23:00   0.00   43.2    66    4.4   344    12.2   810.9    0.00 
 147    0:00   0.00   43.9    69    6.4   350    13.4   810.6    0.00 
 147    1:00   0.00   44.6    66    6.7    22    15.3   810.3    0.00 
 147    2:00   0.00   44.2    67    6.9    21    16.7   810.2    0.00 
 147    3:00   0.00   43.1    73    7.4     3    20.1   810.0    0.00 
 147    4:00   0.00   42.4    75   10.3   360    21.0   810.0    0.00 
 147    5:00   0.01   42.7    73   10.4    10    20.2   810.2    0.00 

Return to Timber Mountain graphs page.


Western Regional Climate Center,wrcc@dri.edu